Bradford-on-Avon, United Kingdom
Current Conditions -  °F | °C
As of 2:50 PM on Friday 24 Oct 2014 (Local Time) from EGGD Reporting Station
Drizzle Drizzle  
Wind Chill: 57°   Ceiling: 400
Heat Index: 57°   Visibility: 2.3mi
Dew Point: 57°   Wind: 9mph
Humidity: 100%   Direction: 200°SSW
Pressure: 29.88"   Gusts: NA
Location:  51.35°N, 2.25°W
Report Text: EGGD 241350Z 20008KT 3800 -DZ SCT003 BKN004 14/14 Q1012
Loading
Personal Weather Stations






























Interactive Weather Map
Tropical Storm Tracking
New forecast layout! Learn more

10-Day Weather Forecast

Advertisements
Track Severe Weather on mobile